In Rescue
 
Open Full Screen Window  High Contrast Mode
Wind Gusting 00 knots
03
November 20, 2019 12:58 AM CST
Present Weather: Mist
Weather Information
Wind Direction
  070 °
Wind Speed
  03 kt (3 mph)
Wind Gust
  00 kt (0 mph)
Altimeter
30.00 in
Visibility
3/4 SM
Temperature
-01° C
30° F
Dewpoint
-01° C
30° F
Humidity
100%
1hr Rain Fall
00.00 in.
24hr Rain Fall
00.01 in.
Sky Condition
Broken @ 100 ft
LIFR

METAR KAEL 200658Z AUTO 07003KT 3/4SM BR BKN001 M01/M01 A3000 RMK AO2

FAA Disclaimer: The data displayed is for advisory purposes only and is not to be used for flight planning or operations.